Jinghe, China
Current Conditions -  °F | °C
As of 9:30 PM on Wednesday 22 Oct 2014 (Local Time) from ZWWW Reporting Station
Clear Clear  
Wind Chill: 57°   Ceiling: Unl
Heat Index: 57°   Visibility: 4mi
Dew Point: 39°   Wind: 2mph
Humidity: 51%   Direction: NA
Pressure: 30.12"   Gusts: NA
Location:  44.62°N, 82.9°E
Report Text: ZWWW 221330Z VRB01MPS 7000 NSC 14/04 Q1020 NOSIG
Loading
Personal Weather Stations






























Interactive Weather Map
Tropical Storm Tracking
New forecast layout! Learn more

10-Day Weather Forecast

Advertisements
Track Severe Weather on mobile